Terminal Aerodrome Forecast
Issued by NWS

Home | Current Version | Previous Version | Text Only | Print | Product List | Glossary On
Versions: 1 2 3 4 5 6 7 8 9 10 11 12 13 14
000
FTUS43 KGRB 051100
TAFATW
TAF
KATW 051130Z 0512/0612 09010KT P6SM SCT070 BKN120
     FM060000 09006KT P6SM SCT040 OVC070
     FM060400 07005KT P6SM SCT020 OVC035
     FM060800 07005KT P6SM VCSH BKN012 OVC020=

USA.gov is the U.S. government's official web portal to all federal, state and local government web resources and services.